createdAt,value
2023-01-29T00:01:06.421Z,7.30
2023-01-29T00:06:13.260Z,6.80
2023-01-29T00:11:12.972Z,10.20
2023-01-29T00:16:13.515Z,11.70
2023-01-29T00:21:17.947Z,9.00
2023-01-29T00:26:18.540Z,12.90
2023-01-29T00:31:22.707Z,8.80
2023-01-29T00:36:24.941Z,7.10
2023-01-29T00:41:42.271Z,7.00
2023-01-29T00:46:42.304Z,9.40
2023-01-29T00:51:42.659Z,9.30
2023-01-29T00:56:42.108Z,5.10
2023-01-29T01:01:59.344Z,11.10
2023-01-29T01:06:59.412Z,6.50
2023-01-29T01:11:58.349Z,5.20
2023-01-29T01:16:57.549Z,4.30
2023-01-29T01:21:56.753Z,7.80
2023-01-29T01:26:55.945Z,6.10
2023-01-29T01:31:56.207Z,6.20
2023-01-29T01:36:56.755Z,4.40
2023-01-29T01:41:56.530Z,5.20
2023-01-29T01:46:56.014Z,8.70
2023-01-29T01:51:57.988Z,7.70
2023-01-29T01:57:09.387Z,3.90
2023-01-29T04:46:28.833Z,9.50
2023-01-29T05:20:51.783Z,11.90
2023-01-29T05:25:53.830Z,10.00
2023-01-29T05:30:56.206Z,12.70
2023-01-29T05:35:56.548Z,9.20
2023-01-29T05:40:56.220Z,11.90
2023-01-29T05:46:01.914Z,8.30
2023-01-29T05:51:06.589Z,11.20
2023-01-29T05:56:09.987Z,10.10
2023-01-29T06:01:19.477Z,13.50
2023-01-29T06:06:19.690Z,13.00
2023-01-29T06:11:20.643Z,11.60
2023-01-29T06:16:19.913Z,13.90
2023-01-29T06:21:21.724Z,15.50
2023-01-29T06:26:23.359Z,8.50
2023-01-29T06:31:37.243Z,12.80
2023-01-29T06:36:37.445Z,14.00
2023-01-29T06:41:37.207Z,13.70
2023-01-29T06:46:37.711Z,12.70
2023-01-29T06:51:38.419Z,14.70
2023-01-29T06:56:37.526Z,13.20
2023-01-29T07:01:36.871Z,13.90
2023-01-29T07:06:37.515Z,15.60
2023-01-29T07:11:38.230Z,16.60
2023-01-29T07:16:37.747Z,9.10
2023-01-29T07:21:38.147Z,14.30
2023-01-29T07:26:37.506Z,16.90
2023-01-29T07:31:36.625Z,13.60
2023-01-29T07:36:37.395Z,14.70
2023-01-29T07:41:36.370Z,13.20
2023-01-29T07:46:41.313Z,12.50
2023-01-29T07:51:39.859Z,15.30
2023-01-29T07:56:39.220Z,17.10
2023-01-29T08:01:38.671Z,13.70
2023-01-29T08:06:39.198Z,12.50
2023-01-29T08:11:38.441Z,17.40
2023-01-29T08:16:37.756Z,17.20
2023-01-29T08:21:37.408Z,16.30
2023-01-29T08:26:36.754Z,11.80
2023-01-29T08:31:36.831Z,10.80
2023-01-29T08:36:37.080Z,15.00
2023-01-29T08:41:42.198Z,10.40
2023-01-29T08:46:42.443Z,15.50
2023-01-29T08:51:41.527Z,14.30
2023-01-29T08:56:47.710Z,12.60
2023-01-29T09:01:48.248Z,16.40
2023-01-29T09:06:47.662Z,13.90
2023-01-29T09:11:47.353Z,8.90
2023-01-29T09:16:46.930Z,13.80
2023-01-29T09:21:46.540Z,13.50
2023-01-29T09:26:46.999Z,15.10
2023-01-29T09:31:45.802Z,13.20
2023-01-29T09:36:45.537Z,12.90
2023-01-29T09:42:00.116Z,12.20
2023-01-29T09:47:05.148Z,12.30
2023-01-29T09:52:13.003Z,13.80
2023-01-29T09:57:21.854Z,15.80
2023-01-29T10:02:50.699Z,15.50
2023-01-29T10:08:24.428Z,15.90
2023-01-29T10:13:38.930Z,17.10
2023-01-29T10:19:08.476Z,17.10
2023-01-29T10:24:23.814Z,14.20
2023-01-29T10:29:24.527Z,14.90
2023-01-29T10:34:33.042Z,17.40
2023-01-29T10:39:35.668Z,20.80
2023-01-29T10:44:53.221Z,19.90
2023-01-29T10:50:14.584Z,10.80
2023-01-29T10:55:34.139Z,16.90
2023-01-29T11:00:40.554Z,15.90
2023-01-29T11:05:51.835Z,18.20
2023-01-29T11:11:02.176Z,17.20
2023-01-29T11:16:01.632Z,16.10
2023-01-29T11:21:07.707Z,14.70
2023-01-29T11:26:09.553Z,15.00
2023-01-29T11:31:20.017Z,14.10
2023-01-29T11:36:40.145Z,16.40
2023-01-29T11:41:51.549Z,16.20
2023-01-29T11:46:52.362Z,14.20
2023-01-29T11:52:02.037Z,10.90
2023-01-29T11:57:02.492Z,19.30
2023-01-29T12:02:21.752Z,12.20
2023-01-29T12:07:23.928Z,17.10
2023-01-29T12:12:45.791Z,14.20
2023-01-29T12:18:00.011Z,13.90
2023-01-29T12:23:13.164Z,16.30
2023-01-29T12:28:31.546Z,12.70
2023-01-29T12:33:48.091Z,19.20
2023-01-29T12:38:49.010Z,21.10
2023-01-29T12:43:55.454Z,16.90
2023-01-29T12:48:59.185Z,11.00
2023-01-29T12:54:05.652Z,17.70
2023-01-29T12:59:21.321Z,14.30
2023-01-29T13:04:32.373Z,18.60
2023-01-29T13:09:36.432Z,18.00
2023-01-29T13:14:47.576Z,20.40
2023-01-29T13:19:51.722Z,20.30
2023-01-29T13:25:04.182Z,14.20
2023-01-29T13:30:05.498Z,22.80
2023-01-29T13:35:16.211Z,19.70
2023-01-29T13:40:29.223Z,17.70
2023-01-29T13:45:35.558Z,20.20
2023-01-29T13:50:42.306Z,19.60
2023-01-29T13:55:43.873Z,22.80
2023-01-29T14:00:57.440Z,21.00
2023-01-29T14:06:05.346Z,15.60
2023-01-29T14:11:37.304Z,22.30
2023-01-29T14:16:41.526Z,20.60
2023-01-29T14:21:42.074Z,22.10
2023-01-29T14:26:49.396Z,22.90
2023-01-29T14:31:56.558Z,26.00
2023-01-29T14:37:02.120Z,17.90
2023-01-29T14:42:04.113Z,27.10
2023-01-29T14:47:03.914Z,26.00
2023-01-29T14:52:04.579Z,26.50
2023-01-29T14:57:12.387Z,19.80
2023-01-29T15:02:25.289Z,20.40
2023-01-29T15:07:37.240Z,26.40
2023-01-29T15:12:48.180Z,36.30
2023-01-29T15:18:01.040Z,31.70
2023-01-29T15:23:03.529Z,15.30
2023-01-29T15:28:08.658Z,32.90
2023-01-29T15:33:12.830Z,32.20
2023-01-29T15:38:22.222Z,26.60
2023-01-29T15:43:29.079Z,28.30
2023-01-29T15:48:37.178Z,23.40
2023-01-29T15:53:47.764Z,28.60
2023-01-29T15:58:51.407Z,26.50
2023-01-29T16:03:55.141Z,28.70
2023-01-29T16:08:59.094Z,18.40
2023-01-29T16:14:00.141Z,22.00
2023-01-29T16:19:01.350Z,26.40
2023-01-29T16:24:09.681Z,24.70
2023-01-29T16:29:19.918Z,29.70
2023-01-29T16:34:29.712Z,21.20
2023-01-29T16:39:35.400Z,26.50
2023-01-29T16:44:41.615Z,27.10
2023-01-29T16:49:57.606Z,29.40
2023-01-29T16:55:02.911Z,28.70
2023-01-29T17:00:08.272Z,29.20
2023-01-29T17:05:21.016Z,35.00
2023-01-29T17:10:25.201Z,29.60
2023-01-29T17:15:48.337Z,34.10
2023-01-29T17:20:48.318Z,32.90
2023-01-29T17:25:48.918Z,36.50
2023-01-29T17:31:00.226Z,31.30
2023-01-29T17:36:05.187Z,24.40
2023-01-29T17:41:10.802Z,38.70
2023-01-29T17:46:15.086Z,25.00
2023-01-29T17:51:17.853Z,39.00
2023-01-29T17:56:27.747Z,34.80
2023-01-29T18:01:27.549Z,32.60
2023-01-29T18:06:33.285Z,31.50
2023-01-29T18:11:34.656Z,31.00
2023-01-29T18:16:37.965Z,30.20
2023-01-29T18:21:38.214Z,33.00
2023-01-29T18:26:38.630Z,34.00
2023-01-29T18:31:38.457Z,28.60
2023-01-29T18:36:38.650Z,27.70
2023-01-29T18:41:39.005Z,30.70
2023-01-29T18:46:39.576Z,32.70
2023-01-29T18:51:39.008Z,34.70
2023-01-29T18:56:39.453Z,34.80
2023-01-29T19:01:58.784Z,38.90
2023-01-29T19:06:57.905Z,33.80
2023-01-29T19:11:58.121Z,33.60
2023-01-29T19:16:58.255Z,35.30
2023-01-29T19:21:58.631Z,32.70
2023-01-29T19:27:00.785Z,29.70
2023-01-29T19:32:00.406Z,27.90
2023-01-29T19:37:00.120Z,38.00
2023-01-29T19:41:58.858Z,35.30
2023-01-29T19:46:58.848Z,27.40
2023-01-29T19:51:59.133Z,36.40
2023-01-29T19:56:59.004Z,29.50
2023-01-29T20:01:58.800Z,32.30
2023-01-29T20:06:57.766Z,36.00
2023-01-29T20:11:56.674Z,32.70
2023-01-29T20:16:56.093Z,35.80
2023-01-29T20:21:55.643Z,35.10
2023-01-29T20:26:54.642Z,38.20
2023-01-29T20:31:53.822Z,36.50
2023-01-29T20:36:53.359Z,26.80
2023-01-29T20:41:54.205Z,31.30
2023-01-29T20:46:55.269Z,28.70
2023-01-29T20:51:54.623Z,32.20
2023-01-29T20:56:54.030Z,30.50
2023-01-29T21:01:53.157Z,28.10
2023-01-29T21:06:52.271Z,33.10
2023-01-29T21:11:52.168Z,23.70
2023-01-29T21:16:51.515Z,26.50
2023-01-29T21:21:51.525Z,29.70
2023-01-29T21:26:51.656Z,29.70
2023-01-29T21:31:51.231Z,23.80
2023-01-29T21:36:51.252Z,22.40
2023-01-29T21:42:11.223Z,25.20
2023-01-29T21:47:13.808Z,22.10
2023-01-29T21:52:15.751Z,25.40
2023-01-29T21:57:18.513Z,24.40
2023-01-29T22:02:21.157Z,19.80
2023-01-29T22:07:26.994Z,21.30
2023-01-29T22:13:01.880Z,20.90
2023-01-29T22:18:20.068Z,25.40
2023-01-29T22:23:19.507Z,25.90
2023-01-29T22:28:20.772Z,23.50
2023-01-29T22:33:22.644Z,25.80
2023-01-29T22:38:23.564Z,25.10
2023-01-29T22:43:26.043Z,23.70
2023-01-29T22:48:34.385Z,27.40
2023-01-29T22:53:37.009Z,32.10
2023-01-29T22:58:37.910Z,23.60
2023-01-29T23:03:37.663Z,28.30
2023-01-29T23:08:38.617Z,25.90
2023-01-29T23:13:37.963Z,26.60
2023-01-29T23:18:37.703Z,22.70
2023-01-29T23:23:39.093Z,21.60
2023-01-29T23:28:38.355Z,23.60
2023-01-29T23:33:37.735Z,25.70
2023-01-29T23:38:37.552Z,28.10
2023-01-29T23:43:37.859Z,23.40
2023-01-29T23:48:37.890Z,25.30
2023-01-29T23:53:38.309Z,23.00
2023-01-29T23:58:42.355Z,22.70
